createdAt,value
2022-11-15T00:04:54.584Z,98259.41
2022-11-15T00:10:15.224Z,98262.13
2022-11-15T00:15:36.253Z,98243.88
2022-11-15T00:20:57.044Z,98242.28
2022-11-15T00:26:17.566Z,98248.84
2022-11-15T00:31:37.919Z,98239.38
2022-11-15T00:36:58.243Z,98235.06
2022-11-15T00:42:18.457Z,98239.56
2022-11-15T00:47:38.848Z,98234.41
2022-11-15T00:52:59.265Z,98220.25
2022-11-15T00:58:19.476Z,98222.16
2022-11-15T01:03:40.412Z,98212.38
2022-11-15T01:09:00.754Z,98206.28
2022-11-15T01:14:25.231Z,98197.84
2022-11-15T01:19:46.005Z,98195.72
2022-11-15T01:25:06.225Z,98182.22
2022-11-15T01:30:26.592Z,98184.56
2022-11-15T01:35:46.962Z,98179.50
2022-11-15T01:41:07.837Z,98182.09
2022-11-15T01:46:38.875Z,98172.53
2022-11-15T01:51:59.917Z,98162.63
2022-11-15T01:57:20.636Z,98159.81
2022-11-15T02:02:41.449Z,98159.00
2022-11-15T02:08:02.374Z,98145.47
2022-11-15T02:13:22.839Z,98151.09
2022-11-15T02:18:49.624Z,98141.84
2022-11-15T02:24:37.279Z,98138.25
2022-11-15T02:30:22.299Z,98143.00
2022-11-15T02:35:48.785Z,98131.84
2022-11-15T02:41:18.181Z,98111.38
2022-11-15T02:47:09.122Z,98108.59
2022-11-15T02:52:29.132Z,98103.78
2022-11-15T02:58:16.821Z,98109.88
2022-11-15T03:04:03.759Z,98105.03
2022-11-15T03:09:51.577Z,98098.72
2022-11-15T03:15:39.317Z,98093.56
2022-11-15T03:21:04.334Z,98091.75
2022-11-15T03:26:26.530Z,98091.06
2022-11-15T03:31:51.904Z,98078.03
2022-11-15T03:37:15.213Z,98084.09
2022-11-15T03:42:52.863Z,98077.69
2022-11-15T03:48:23.940Z,98076.03
2022-11-15T03:53:44.302Z,98077.59
2022-11-15T03:59:04.542Z,98073.75
2022-11-15T04:04:24.881Z,98065.00
2022-11-15T04:10:03.505Z,98074.00
2022-11-15T04:15:25.835Z,98064.63
2022-11-15T04:21:04.434Z,98058.34
2022-11-15T04:26:25.002Z,98059.78
2022-11-15T04:31:45.389Z,98062.72
2022-11-15T04:37:14.644Z,98055.75
2022-11-15T04:42:35.164Z,98057.31
2022-11-15T04:47:55.571Z,98055.75
2022-11-15T04:53:15.828Z,98044.75
2022-11-15T04:58:36.391Z,98051.25
2022-11-15T05:04:14.991Z,98042.03
2022-11-15T05:09:35.193Z,98047.78
2022-11-15T05:14:55.521Z,98037.63
2022-11-15T05:20:15.933Z,98036.88
2022-11-15T05:25:37.045Z,98037.53
2022-11-15T05:31:09.244Z,98030.22
2022-11-15T05:36:38.900Z,98023.50
2022-11-15T05:42:07.257Z,98024.50
2022-11-15T05:47:30.504Z,98020.22
2022-11-15T05:52:51.857Z,98022.25
2022-11-15T05:58:12.356Z,98033.06
2022-11-15T06:03:33.228Z,98024.63
2022-11-15T06:08:54.004Z,98026.75
2022-11-15T06:14:14.031Z,98032.69
2022-11-15T06:19:34.432Z,98035.41
2022-11-15T06:24:54.700Z,98027.78
2022-11-15T06:30:15.393Z,98033.94
2022-11-15T06:35:36.712Z,98035.53
2022-11-15T06:41:02.659Z,98043.16
2022-11-15T06:46:23.178Z,98039.13
2022-11-15T06:51:43.495Z,98046.84
2022-11-15T06:57:05.593Z,98044.09
2022-11-15T07:02:25.663Z,98052.41
2022-11-15T07:07:53.283Z,98055.97
2022-11-15T07:13:13.509Z,98056.72
2022-11-15T07:18:38.636Z,98056.09
2022-11-15T07:23:58.600Z,98061.22
2022-11-15T07:29:19.030Z,98053.25
2022-11-15T07:34:39.289Z,98063.75
2022-11-15T07:39:59.733Z,98061.94
2022-11-15T07:45:26.799Z,98065.09
2022-11-15T07:50:47.132Z,98055.94
2022-11-15T07:56:07.900Z,98055.72
2022-11-15T08:01:28.341Z,98048.88
2022-11-15T08:06:48.774Z,98049.84
2022-11-15T08:12:09.234Z,98044.84
2022-11-15T08:17:33.105Z,98047.25
2022-11-15T08:22:53.754Z,98041.81
2022-11-15T08:28:14.429Z,98029.69
2022-11-15T08:33:35.156Z,98021.47
2022-11-15T08:38:56.117Z,98034.13
2022-11-15T08:44:16.547Z,98033.63
2022-11-15T08:49:36.791Z,98033.91
2022-11-15T08:54:57.112Z,98031.59
2022-11-15T09:00:18.017Z,98015.97
2022-11-15T09:05:38.986Z,98019.28
2022-11-15T09:10:59.269Z,98018.78
2022-11-15T09:16:19.711Z,98023.50
2022-11-15T09:21:40.033Z,98021.22
2022-11-15T09:27:00.466Z,98018.06
2022-11-15T09:32:20.749Z,98019.75
2022-11-15T09:37:41.356Z,98010.59
2022-11-15T09:43:35.520Z,98000.19
2022-11-15T09:48:58.253Z,98003.78
2022-11-15T09:54:46.092Z,98003.44
2022-11-15T10:05:26.486Z,97989.03
2022-11-15T10:10:37.365Z,97978.97
2022-11-15T10:15:39.299Z,97985.97
2022-11-15T10:20:47.841Z,97971.94
2022-11-15T10:25:54.233Z,97963.38
2022-11-15T10:30:58.489Z,97964.94
2022-11-15T10:36:16.258Z,97956.38
2022-11-15T10:41:32.883Z,97954.03
2022-11-15T10:46:48.606Z,97945.03
2022-11-15T10:51:55.168Z,97946.19
2022-11-15T10:57:00.715Z,97932.16
2022-11-15T11:02:02.642Z,97940.81
2022-11-15T11:07:22.536Z,97920.59
2022-11-15T11:12:33.472Z,97909.34
2022-11-15T11:17:59.559Z,97906.66
2022-11-15T11:23:16.502Z,97903.59
2022-11-15T11:28:40.435Z,97894.59
2022-11-15T11:34:19.283Z,97883.75
2022-11-15T11:39:45.395Z,97864.75
2022-11-15T11:45:14.970Z,97871.00
2022-11-15T11:50:20.922Z,97867.13
2022-11-15T11:55:54.059Z,97871.78
2022-11-15T12:01:01.206Z,97860.91
2022-11-15T12:06:28.583Z,97850.41
2022-11-15T12:11:38.227Z,97850.06
2022-11-15T12:16:42.792Z,97834.09
2022-11-15T12:22:11.620Z,97827.44
2022-11-15T12:27:47.494Z,97818.88
2022-11-15T12:33:01.045Z,97806.09
2022-11-15T12:38:03.270Z,97797.13
2022-11-15T12:43:14.536Z,97781.94
2022-11-15T12:48:19.784Z,97781.28
2022-11-15T12:53:25.011Z,97771.38
2022-11-15T12:58:50.988Z,97767.81
2022-11-15T13:04:22.925Z,97757.13
2022-11-15T13:09:36.806Z,97750.16
2022-11-15T13:14:40.519Z,97756.28
2022-11-15T13:19:42.474Z,97753.47
2022-11-15T13:24:44.559Z,97748.56
2022-11-15T13:29:46.439Z,97744.59
2022-11-15T13:34:53.684Z,97742.69
2022-11-15T13:39:55.555Z,97746.06
2022-11-15T13:45:02.970Z,97730.59
2022-11-15T13:50:12.068Z,97738.06
2022-11-15T13:55:19.933Z,97735.78
2022-11-15T14:00:34.551Z,97721.69
2022-11-15T14:05:36.683Z,97724.13
2022-11-15T14:10:39.469Z,97727.59
2022-11-15T14:15:41.249Z,97725.13
2022-11-15T14:20:43.959Z,97721.56
2022-11-15T14:25:58.079Z,97723.91
2022-11-15T14:31:01.287Z,97715.72
2022-11-15T14:36:05.113Z,97713.56
2022-11-15T14:41:11.545Z,97718.34
2022-11-15T14:46:13.376Z,97718.34
2022-11-15T14:51:17.956Z,97709.75
2022-11-15T14:56:19.823Z,97705.03
2022-11-15T15:01:25.453Z,97696.78
2022-11-15T15:06:27.999Z,97692.84
2022-11-15T15:11:32.161Z,97698.94
2022-11-15T15:16:34.030Z,97694.59
2022-11-15T15:21:37.653Z,97684.41
2022-11-15T15:26:40.187Z,97684.69
2022-11-15T15:31:42.210Z,97683.38
2022-11-15T15:36:44.067Z,97682.84
2022-11-15T15:41:46.241Z,97687.72
2022-11-15T15:46:48.126Z,97694.16
2022-11-15T15:51:50.079Z,97681.19
2022-11-15T15:56:56.007Z,97682.97
2022-11-15T16:01:58.434Z,97683.91
2022-11-15T16:07:01.957Z,97687.59
2022-11-15T16:12:03.932Z,97683.50
2022-11-15T16:17:06.305Z,97680.13
2022-11-15T16:22:08.133Z,97681.09
2022-11-15T16:27:18.085Z,97676.59
2022-11-15T16:32:20.005Z,97680.28
2022-11-15T16:37:24.294Z,97668.16
2022-11-15T16:42:26.256Z,97672.28
2022-11-15T16:47:28.211Z,97679.78
2022-11-15T16:52:30.007Z,97666.41
2022-11-15T16:57:31.821Z,97663.16
2022-11-15T17:02:34.037Z,97656.78
2022-11-15T17:07:36.416Z,97653.94
2022-11-15T17:12:38.386Z,97647.56
2022-11-15T17:17:41.413Z,97647.00
2022-11-15T17:22:43.248Z,97637.91
2022-11-15T17:27:45.156Z,97643.88
2022-11-15T17:32:49.900Z,97638.63
2022-11-15T17:37:52.848Z,97635.34
2022-11-15T17:42:55.544Z,97642.91
2022-11-15T17:47:57.388Z,97639.75
2022-11-15T17:53:00.127Z,97633.84
2022-11-15T17:58:01.934Z,97634.03
2022-11-15T18:03:05.034Z,97631.13
2022-11-15T18:08:10.203Z,97623.94
2022-11-15T18:13:14.649Z,97620.63
2022-11-15T18:18:16.530Z,97609.69
2022-11-15T18:23:18.459Z,97613.03
2022-11-15T18:28:20.520Z,97608.94
2022-11-15T18:33:22.408Z,97598.41
2022-11-15T18:38:24.293Z,97593.13
2022-11-15T18:43:26.389Z,97593.63
2022-11-15T18:48:31.197Z,97590.75
2022-11-15T18:53:34.449Z,97580.38
2022-11-15T18:58:40.117Z,97573.00
2022-11-15T19:03:44.426Z,97583.19
2022-11-15T19:08:48.854Z,97575.59
2022-11-15T19:13:59.689Z,97570.31
2022-11-15T19:19:04.543Z,97579.53
2022-11-15T19:24:06.880Z,97571.53
2022-11-15T19:29:13.872Z,97558.97
2022-11-15T19:34:16.681Z,97564.19
2022-11-15T19:39:18.701Z,97570.69
2022-11-15T19:44:22.114Z,97573.41
2022-11-15T19:49:23.989Z,97571.81
2022-11-15T19:54:25.790Z,97568.09
2022-11-15T19:59:27.680Z,97554.78
2022-11-15T20:04:29.552Z,97556.16
2022-11-15T20:09:31.377Z,97554.59
2022-11-15T20:14:33.247Z,97546.06
2022-11-15T20:19:35.162Z,97548.34
2022-11-15T20:24:37.041Z,97548.34
2022-11-15T20:29:43.651Z,97550.69
2022-11-15T20:34:50.176Z,97553.03
2022-11-15T20:39:55.669Z,97546.78
2022-11-15T20:44:57.468Z,97537.38
2022-11-15T20:50:14.954Z,97530.34
2022-11-15T20:55:21.296Z,97519.69
2022-11-15T21:00:25.827Z,97530.63
2022-11-15T21:05:28.709Z,97539.09
2022-11-15T21:10:51.357Z,97529.00
2022-11-15T21:15:57.782Z,97517.81
2022-11-15T21:21:04.497Z,97507.03
2022-11-15T21:26:06.375Z,97500.75
2022-11-15T21:31:09.198Z,97494.50
2022-11-15T21:36:10.981Z,97499.44
2022-11-15T21:41:12.755Z,97491.59
2022-11-15T21:46:14.553Z,97487.25
2022-11-15T21:51:16.371Z,97479.84
2022-11-15T21:56:18.379Z,97476.38
2022-11-15T22:01:56.377Z,97475.50
2022-11-15T22:06:58.815Z,97460.72
2022-11-15T22:12:00.767Z,97473.72
2022-11-15T22:17:02.636Z,97474.41
2022-11-15T22:22:04.825Z,97468.59
2022-11-15T22:27:06.883Z,97461.53
2022-11-15T22:32:08.760Z,97452.69
2022-11-15T22:37:20.571Z,97442.81
2022-11-15T22:42:24.114Z,97436.31
2022-11-15T22:47:26.440Z,97424.41
2022-11-15T22:52:28.325Z,97407.13
2022-11-15T22:57:30.266Z,97395.94
2022-11-15T23:02:32.140Z,97395.50
2022-11-15T23:07:34.621Z,97387.25
2022-11-15T23:12:55.272Z,97378.72
2022-11-15T23:17:57.142Z,97385.56
2022-11-15T23:22:59.389Z,97370.88
2022-11-15T23:28:05.300Z,97367.94
2022-11-15T23:33:25.872Z,97358.84
2022-11-15T23:38:27.803Z,97365.19
2022-11-15T23:43:30.022Z,97345.34
2022-11-15T23:48:32.307Z,97349.25
2022-11-15T23:53:34.542Z,97340.94
2022-11-15T23:58:36.715Z,97340.06
